NCAR-RAP Real-Time Weather Data

Output produced by METARs form (12 August 2020  18:06 UTC)
found at http://weather.rap.ucar.edu/surface/
 
KJAN 121754Z 22005KT 10SM BKN034 BKN250 34/23 A3002 RMK AO2 SLP160 T03390228 10344 20244 58005
KJAN 121654Z 25005KT 10SM BKN034 BKN250 33/23 A3003 RMK AO2 SLP164 T03330228
KJAN 121554Z 29005KT 10SM SCT032 32/23 A3005 RMK AO2 SLP170 T03170233
KJAN 121454Z 00000KT 10SM FEW035 SCT250 31/24 A3004 RMK AO2 SLP166 T03060239 51009
KJAN 121354Z 00000KT 10SM CLR 28/23 A3003 RMK AO2 SLP163 T02780233
KJAN 121254Z 18004KT 10SM CLR 26/23 A3003 RMK AO2 SLP163 T02610228
KJAN 121154Z 00000KT 10SM CLR 24/22 A3001 RMK AO2 SLP157 T02440222 10256 20228 53013
KJAN 121054Z AUTO 21003KT 10SM CLR 23/22 A2998 RMK AO2 SLP147 T02330217 TSNO
KJAN 120954Z AUTO 00000KT 10SM CLR 23/22 A2996 RMK AO2 SLP139 T02330217 TSNO
KJAN 120854Z AUTO 20003KT 10SM CLR 23/22 A2997 RMK AO2 SLP144 T02330217 58014
KJAN 120754Z AUTO 19007KT 10SM CLR 24/22 A3000 RMK AO2 SLP151 T02440217
KJAN 120654Z AUTO 13010KT 10SM CLR 25/22 A3002 RMK AO2 SLP159 T02500217
KJAN 120554Z AUTO 11008G18KT 10SM CLR 26/22 A3001 RMK AO2 SLP156 T02610222 10333 20261 403610244 50008
KJAN 120454Z AUTO 13010G25KT 10SM BKN070 BKN090 27/22 A3002 RMK AO2 SLP160 T02720222
KJAN 120354Z 00000KT 10SM FEW075 27/23 A3000 RMK AO2 SLP154 T02670228
KJAN 120254Z AUTO 00000KT 10SM CLR 27/22 A2999 RMK AO2 SLP149 T02720222 51017
KJAN 120154Z 00000KT 10SM CLR 29/22 A2997 RMK AO2 SLP142 T02890222
KJAN 120054Z 00000KT 10SM FEW055 32/21 A2997 RMK AO2 LTG DSNT E SLP143 T03170211
KJAN 112354Z 29005KT 10SM CLR 33/21 A2994 RMK AO2 SLP132 T03330211 10361 20333 56002
KJAN 112254Z 29007KT 10SM SCT055 35/22 A2994 RMK AO2 SLP132 T03500217
KJAN 112154Z 28008KT 10SM SCT050 SCT120 36/22 A2994 RMK AO2 SLP131 T03560217
KJAN 112054Z 28009KT 10SM SCT050 BKN120 36/21 A2994 RMK AO2 SLP133 T03560211 58027
KJAN 111954Z 21009KT 10SM BKN048 BKN120 35/22 A2997 RMK AO2 SLP143 T03500222
KJAN 111854Z 28007KT 10SM FEW044 SCT055 35/23 A3000 RMK AO2 SLP151 T03500228
KJAN 111754Z 24005KT 10SM SCT060 SCT100 34/23 A3002 RMK AO2 SLP161 T03440228 10344 20250 58013
KJAN 111654Z 30006KT 10SM FEW100 34/23 A3005 RMK AO2 SLP168 T03390228
KJAN 111554Z VRB03KT 10SM CLR 32/23 A3006 RMK AO2 SLP174 T03220228
KJAN 111454Z VRB05KT 10SM CLR 31/23 A3006 RMK AO2 SLP175 T03110228 53010
KJAN 111354Z 26006KT 10SM CLR 30/23 A3005 RMK AO2 SLP171 T03000228
KJAN 111254Z 26004KT 10SM CLR 27/23 A3003 RMK AO2 SLP165 T02720228
KJAN 111154Z 00000KT 10SM CLR 25/22 A3003 RMK AO2 SLP164 T02500222 10267 20244 53007
KJAN 111054Z 00000KT 10SM CLR 25/22 A3003 RMK AO2 SLP161 T02500217
KJAN 110954Z AUTO 00000KT 10SM CLR 25/22 A3001 RMK AO2 SLP157 T02500222
KJAN 110854Z AUTO 00000KT 10SM CLR 25/23 A3001 RMK AO2 SLP156 T02500228 56003
KJAN 110754Z AUTO 00000KT 10SM CLR 26/23 A3001 RMK AO2 SLP156 T02560228
KJAN 110654Z AUTO 14003KT 10SM CLR 26/23 A3001 RMK AO2 SLP155 T02560228
KJAN 110554Z AUTO 14003KT 10SM CLR 26/23 A3002 RMK AO2 SLP159 T02610228 10339 20256 403610233 50006
KJAN 110454Z AUTO 00000KT 10SM CLR 27/23 A3002 RMK AO2 SLP160 T02670228
KJAN 110354Z 00000KT 10SM CLR 27/23 A3001 RMK AO2 SLP157 T02670228
KJAN 110254Z 00000KT 10SM CLR 27/23 A3000 RMK AO2 SLP153 T02720233 53010
KJAN 110154Z 00000KT 10SM CLR 29/23 A2999 RMK AO2 SLP149 T02890228
KJAN 110054Z 00000KT 10SM FEW120 30/23 A2997 RMK AO2 SLP144 T03000228
KJAN 102354Z 28005KT 10SM FEW065 34/22 A2997 RMK AO2 SLP143 T03390222 10361 20333 56019
KJAN 102254Z 29003KT 10SM FEW060 35/22 A2998 RMK AO2 SLP147 T03500217
KJAN 102154Z 29005KT 10SM SCT060 36/22 A3000 RMK AO2 SLP152 T03560217
KJAN 102054Z 26008KT 10SM SCT060 36/22 A3003 RMK AO2 SLP161 T03560217 58024
KJAN 101954Z 27004KT 10SM FEW090 36/22 A3005 RMK AO2 SLP170 T03560217
KJAN 101854Z 26006KT 10SM SCT037 34/22 A3008 RMK AO2 SLP179 T03440222